sensor_id;sensor_type;location;lat;lon;timestamp;P1;durP1;ratioP1;P2;durP2;ratioP2
7128;SDS011;3606;52.930;8.644;2023-05-10T00:00:12;16.70;;;11.07;;
7128;SDS011;3606;52.930;8.644;2023-05-10T00:02:38;13.60;;;10.70;;
7128;SDS011;3606;52.930;8.644;2023-05-10T00:05:05;12.60;;;10.33;;
7128;SDS011;3606;52.930;8.644;2023-05-10T00:07:31;13.83;;;10.27;;
7128;SDS011;3606;52.930;8.644;2023-05-10T00:09:57;12.43;;;10.33;;
7128;SDS011;3606;52.930;8.644;2023-05-10T00:12:23;15.70;;;11.07;;
7128;SDS011;3606;52.930;8.644;2023-05-10T00:14:48;14.33;;;11.80;;
7128;SDS011;3606;52.930;8.644;2023-05-10T00:17:14;17.10;;;12.70;;
7128;SDS011;3606;52.930;8.644;2023-05-10T00:19:39;15.00;;;11.97;;
7128;SDS011;3606;52.930;8.644;2023-05-10T00:22:05;14.40;;;11.70;;
7128;SDS011;3606;52.930;8.644;2023-05-10T00:24:31;14.60;;;11.37;;
7128;SDS011;3606;52.930;8.644;2023-05-10T00:26:56;14.87;;;11.77;;
7128;SDS011;3606;52.930;8.644;2023-05-10T00:29:22;15.03;;;12.00;;
7128;SDS011;3606;52.930;8.644;2023-05-10T00:31:47;15.40;;;12.00;;
7128;SDS011;3606;52.930;8.644;2023-05-10T00:34:13;16.10;;;12.00;;
7128;SDS011;3606;52.930;8.644;2023-05-10T00:36:39;15.10;;;12.50;;
7128;SDS011;3606;52.930;8.644;2023-05-10T00:39:04;17.67;;;11.87;;
7128;SDS011;3606;52.930;8.644;2023-05-10T00:41:30;14.93;;;12.10;;
7128;SDS011;3606;52.930;8.644;2023-05-10T00:43:58;13.90;;;11.47;;
7128;SDS011;3606;52.930;8.644;2023-05-10T00:46:24;15.77;;;10.57;;
7128;SDS011;3606;52.930;8.644;2023-05-10T00:48:50;13.80;;;11.60;;
7128;SDS011;3606;52.930;8.644;2023-05-10T00:51:16;13.70;;;11.40;;
7128;SDS011;3606;52.930;8.644;2023-05-10T00:53:42;14.37;;;11.27;;
7128;SDS011;3606;52.930;8.644;2023-05-10T00:56:10;14.40;;;12.10;;
7128;SDS011;3606;52.930;8.644;2023-05-10T00:58:35;20.03;;;13.80;;
7128;SDS011;3606;52.930;8.644;2023-05-10T01:01:01;19.43;;;13.30;;
7128;SDS011;3606;52.930;8.644;2023-05-10T01:03:27;18.83;;;12.93;;
7128;SDS011;3606;52.930;8.644;2023-05-10T01:05:53;17.70;;;12.93;;
7128;SDS011;3606;52.930;8.644;2023-05-10T01:08:20;19.33;;;13.30;;
7128;SDS011;3606;52.930;8.644;2023-05-10T01:10:46;20.13;;;13.97;;
7128;SDS011;3606;52.930;8.644;2023-05-10T01:13:14;16.90;;;13.77;;
7128;SDS011;3606;52.930;8.644;2023-05-10T01:15:50;20.20;;;14.27;;
7128;SDS011;3606;52.930;8.644;2023-05-10T01:18:16;18.50;;;14.23;;
7128;SDS011;3606;52.930;8.644;2023-05-10T01:20:46;20.53;;;15.33;;
7128;SDS011;3606;52.930;8.644;2023-05-10T01:34:27;13.70;;;10.93;;
7128;SDS011;3606;52.930;8.644;2023-05-10T01:37:06;14.97;;;10.70;;
7128;SDS011;3606;52.930;8.644;2023-05-10T01:42:17;14.83;;;9.80;;
7128;SDS011;3606;52.930;8.644;2023-05-10T01:44:54;11.93;;;9.67;;
7128;SDS011;3606;52.930;8.644;2023-05-10T01:50:18;10.83;;;8.70;;
7128;SDS011;3606;52.930;8.644;2023-05-10T01:52:48;11.20;;;8.80;;
7128;SDS011;3606;52.930;8.644;2023-05-10T01:55:18;11.00;;;8.63;;
7128;SDS011;3606;52.930;8.644;2023-05-10T01:57:46;10.80;;;7.87;;
7128;SDS011;3606;52.930;8.644;2023-05-10T02:00:15;13.53;;;9.03;;
7128;SDS011;3606;52.930;8.644;2023-05-10T02:02:42;10.07;;;8.90;;
7128;SDS011;3606;52.930;8.644;2023-05-10T02:05:12;10.03;;;8.43;;
7128;SDS011;3606;52.930;8.644;2023-05-10T02:07:39;11.40;;;8.90;;
7128;SDS011;3606;52.930;8.644;2023-05-10T02:10:06;10.17;;;7.67;;
7128;SDS011;3606;52.930;8.644;2023-05-10T02:12:44;10.97;;;8.83;;
7128;SDS011;3606;52.930;8.644;2023-05-10T02:15:12;11.40;;;8.33;;
7128;SDS011;3606;52.930;8.644;2023-05-10T02:17:43;13.87;;;8.40;;
7128;SDS011;3606;52.930;8.644;2023-05-10T02:20:11;8.57;;;7.63;;
7128;SDS011;3606;52.930;8.644;2023-05-10T02:22:38;11.07;;;8.03;;
7128;SDS011;3606;52.930;8.644;2023-05-10T02:25:06;9.37;;;8.37;;
7128;SDS011;3606;52.930;8.644;2023-05-10T02:27:35;9.80;;;8.23;;
7128;SDS011;3606;52.930;8.644;2023-05-10T02:30:02;9.93;;;8.33;;
7128;SDS011;3606;52.930;8.644;2023-05-10T02:32:29;9.37;;;7.93;;
7128;SDS011;3606;52.930;8.644;2023-05-10T02:34:55;9.60;;;8.10;;
7128;SDS011;3606;52.930;8.644;2023-05-10T02:37:22;12.80;;;8.33;;
7128;SDS011;3606;52.930;8.644;2023-05-10T02:39:49;11.40;;;8.47;;
7128;SDS011;3606;52.930;8.644;2023-05-10T02:42:18;14.60;;;8.67;;
7128;SDS011;3606;52.930;8.644;2023-05-10T02:44:47;10.63;;;8.10;;
7128;SDS011;3606;52.930;8.644;2023-05-10T02:47:15;10.67;;;8.40;;
7128;SDS011;3606;52.930;8.644;2023-05-10T02:49:41;9.23;;;7.70;;
7128;SDS011;3606;52.930;8.644;2023-05-10T02:52:07;10.60;;;8.70;;
7128;SDS011;3606;52.930;8.644;2023-05-10T02:54:41;11.10;;;8.20;;
7128;SDS011;3606;52.930;8.644;2023-05-10T02:57:09;10.43;;;7.83;;
7128;SDS011;3606;52.930;8.644;2023-05-10T02:59:39;10.17;;;8.27;;
7128;SDS011;3606;52.930;8.644;2023-05-10T03:02:07;10.13;;;8.47;;
7128;SDS011;3606;52.930;8.644;2023-05-10T03:04:34;9.57;;;8.47;;
7128;SDS011;3606;52.930;8.644;2023-05-10T03:06:59;10.10;;;8.63;;
7128;SDS011;3606;52.930;8.644;2023-05-10T03:09:25;11.57;;;8.77;;
7128;SDS011;3606;52.930;8.644;2023-05-10T03:12:11;13.83;;;8.73;;
7128;SDS011;3606;52.930;8.644;2023-05-10T03:19:54;11.13;;;8.87;;
7128;SDS011;3606;52.930;8.644;2023-05-10T03:22:26;10.73;;;8.87;;
7128;SDS011;3606;52.930;8.644;2023-05-10T03:25:06;9.17;;;8.17;;
7128;SDS011;3606;52.930;8.644;2023-05-10T03:27:33;11.63;;;8.37;;
7128;SDS011;3606;52.930;8.644;2023-05-10T03:30:01;10.40;;;8.10;;
7128;SDS011;3606;52.930;8.644;2023-05-10T03:32:28;10.27;;;8.83;;
7128;SDS011;3606;52.930;8.644;2023-05-10T03:34:56;15.40;;;8.90;;
7128;SDS011;3606;52.930;8.644;2023-05-10T03:37:22;11.07;;;8.83;;
7128;SDS011;3606;52.930;8.644;2023-05-10T03:39:47;8.47;;;7.20;;
7128;SDS011;3606;52.930;8.644;2023-05-10T03:42:13;14.07;;;8.23;;
7128;SDS011;3606;52.930;8.644;2023-05-10T03:44:39;11.00;;;8.03;;
7128;SDS011;3606;52.930;8.644;2023-05-10T03:47:05;10.10;;;7.60;;
7128;SDS011;3606;52.930;8.644;2023-05-10T03:49:31;10.67;;;8.57;;
7128;SDS011;3606;52.930;8.644;2023-05-10T03:51:57;11.20;;;8.50;;
7128;SDS011;3606;52.930;8.644;2023-05-10T03:54:22;11.50;;;8.37;;
7128;SDS011;3606;52.930;8.644;2023-05-10T03:56:48;7.93;;;7.10;;
7128;SDS011;3606;52.930;8.644;2023-05-10T03:59:13;11.33;;;8.20;;
7128;SDS011;3606;52.930;8.644;2023-05-10T04:01:39;13.20;;;8.07;;
7128;SDS011;3606;52.930;8.644;2023-05-10T04:04:05;10.17;;;8.33;;
7128;SDS011;3606;52.930;8.644;2023-05-10T04:06:30;10.77;;;8.27;;
7128;SDS011;3606;52.930;8.644;2023-05-10T04:08:56;9.20;;;8.17;;
7128;SDS011;3606;52.930;8.644;2023-05-10T04:11:24;10.00;;;7.63;;
7128;SDS011;3606;52.930;8.644;2023-05-10T04:13:50;10.80;;;8.23;;
7128;SDS011;3606;52.930;8.644;2023-05-10T04:16:16;12.07;;;8.47;;
7128;SDS011;3606;52.930;8.644;2023-05-10T04:18:41;11.33;;;9.13;;
7128;SDS011;3606;52.930;8.644;2023-05-10T04:21:13;9.37;;;8.13;;
7128;SDS011;3606;52.930;8.644;2023-05-10T04:23:39;11.80;;;9.07;;
7128;SDS011;3606;52.930;8.644;2023-05-10T04:26:05;11.47;;;8.93;;
7128;SDS011;3606;52.930;8.644;2023-05-10T04:28:31;11.73;;;9.40;;
7128;SDS011;3606;52.930;8.644;2023-05-10T04:31:03;10.27;;;8.33;;
7128;SDS011;3606;52.930;8.644;2023-05-10T04:33:33;11.00;;;8.90;;
7128;SDS011;3606;52.930;8.644;2023-05-10T04:36:00;10.97;;;8.93;;
7128;SDS011;3606;52.930;8.644;2023-05-10T04:38:26;12.13;;;8.83;;
7128;SDS011;3606;52.930;8.644;2023-05-10T04:40:52;10.03;;;8.40;;
7128;SDS011;3606;52.930;8.644;2023-05-10T04:43:18;10.03;;;8.20;;
7128;SDS011;3606;52.930;8.644;2023-05-10T04:45:44;12.10;;;9.00;;
7128;SDS011;3606;52.930;8.644;2023-05-10T04:48:10;11.17;;;9.27;;
7128;SDS011;3606;52.930;8.644;2023-05-10T04:50:36;11.47;;;9.40;;
7128;SDS011;3606;52.930;8.644;2023-05-10T04:53:01;13.10;;;9.13;;
7128;SDS011;3606;52.930;8.644;2023-05-10T04:55:27;13.00;;;9.57;;
7128;SDS011;3606;52.930;8.644;2023-05-10T04:57:53;11.10;;;8.83;;
7128;SDS011;3606;52.930;8.644;2023-05-10T05:00:21;11.47;;;9.43;;
7128;SDS011;3606;52.930;8.644;2023-05-10T05:02:47;10.37;;;8.73;;
7128;SDS011;3606;52.930;8.644;2023-05-10T05:05:13;11.10;;;9.60;;
7128;SDS011;3606;52.930;8.644;2023-05-10T05:07:38;10.60;;;9.27;;
7128;SDS011;3606;52.930;8.644;2023-05-10T05:10:05;10.93;;;9.37;;
7128;SDS011;3606;52.930;8.644;2023-05-10T05:12:32;10.83;;;9.10;;
7128;SDS011;3606;52.930;8.644;2023-05-10T05:14:57;10.90;;;8.80;;
7128;SDS011;3606;52.930;8.644;2023-05-10T05:17:23;11.80;;;9.37;;
7128;SDS011;3606;52.930;8.644;2023-05-10T05:19:48;14.07;;;9.63;;
7128;SDS011;3606;52.930;8.644;2023-05-10T05:22:14;11.27;;;9.53;;
7128;SDS011;3606;52.930;8.644;2023-05-10T05:24:40;9.97;;;8.97;;
7128;SDS011;3606;52.930;8.644;2023-05-10T05:27:05;12.93;;;9.83;;
7128;SDS011;3606;52.930;8.644;2023-05-10T05:29:31;10.57;;;9.00;;
7128;SDS011;3606;52.930;8.644;2023-05-10T05:31:57;13.97;;;9.83;;
7128;SDS011;3606;52.930;8.644;2023-05-10T05:34:22;11.87;;;9.30;;
7128;SDS011;3606;52.930;8.644;2023-05-10T05:36:49;11.10;;;9.27;;
7128;SDS011;3606;52.930;8.644;2023-05-10T05:39:14;11.33;;;8.80;;
7128;SDS011;3606;52.930;8.644;2023-05-10T05:41:40;12.80;;;9.53;;
7128;SDS011;3606;52.930;8.644;2023-05-10T05:44:06;13.93;;;10.40;;
7128;SDS011;3606;52.930;8.644;2023-05-10T05:46:31;12.47;;;10.07;;
7128;SDS011;3606;52.930;8.644;2023-05-10T05:48:57;13.33;;;10.17;;
7128;SDS011;3606;52.930;8.644;2023-05-10T05:51:22;11.30;;;9.33;;
7128;SDS011;3606;52.930;8.644;2023-05-10T05:53:48;12.10;;;9.47;;
7128;SDS011;3606;52.930;8.644;2023-05-10T05:56:13;12.33;;;10.80;;
7128;SDS011;3606;52.930;8.644;2023-05-10T05:58:39;10.63;;;9.53;;
7128;SDS011;3606;52.930;8.644;2023-05-10T06:01:05;11.83;;;10.43;;
7128;SDS011;3606;52.930;8.644;2023-05-10T06:03:30;11.23;;;9.10;;
7128;SDS011;3606;52.930;8.644;2023-05-10T06:05:56;12.47;;;9.77;;
7128;SDS011;3606;52.930;8.644;2023-05-10T06:08:21;12.70;;;9.73;;
7128;SDS011;3606;52.930;8.644;2023-05-10T06:10:47;12.20;;;9.23;;
7128;SDS011;3606;52.930;8.644;2023-05-10T06:13:13;10.70;;;9.27;;
7128;SDS011;3606;52.930;8.644;2023-05-10T06:15:38;12.27;;;8.87;;
7128;SDS011;3606;52.930;8.644;2023-05-10T06:18:04;10.87;;;8.40;;
7128;SDS011;3606;52.930;8.644;2023-05-10T06:20:30;11.27;;;9.27;;
7128;SDS011;3606;52.930;8.644;2023-05-10T06:22:56;11.63;;;10.07;;
7128;SDS011;3606;52.930;8.644;2023-05-10T06:25:23;10.63;;;9.17;;
7128;SDS011;3606;52.930;8.644;2023-05-10T06:27:48;8.80;;;7.50;;
7128;SDS011;3606;52.930;8.644;2023-05-10T06:30:14;7.97;;;7.13;;
7128;SDS011;3606;52.930;8.644;2023-05-10T06:32:40;8.83;;;6.27;;
7128;SDS011;3606;52.930;8.644;2023-05-10T06:35:06;7.60;;;6.53;;
7128;SDS011;3606;52.930;8.644;2023-05-10T06:37:32;7.63;;;6.43;;
7128;SDS011;3606;52.930;8.644;2023-05-10T06:39:59;6.97;;;6.27;;
7128;SDS011;3606;52.930;8.644;2023-05-10T06:42:25;5.77;;;5.17;;
7128;SDS011;3606;52.930;8.644;2023-05-10T06:44:51;6.57;;;5.67;;
7128;SDS011;3606;52.930;8.644;2023-05-10T06:47:17;5.40;;;4.40;;
7128;SDS011;3606;52.930;8.644;2023-05-10T06:49:43;4.53;;;4.13;;
7128;SDS011;3606;52.930;8.644;2023-05-10T06:52:08;4.37;;;3.97;;
7128;SDS011;3606;52.930;8.644;2023-05-10T06:54:34;5.63;;;4.53;;
7128;SDS011;3606;52.930;8.644;2023-05-10T06:56:59;5.20;;;4.60;;
7128;SDS011;3606;52.930;8.644;2023-05-10T06:59:25;5.83;;;5.20;;
7128;SDS011;3606;52.930;8.644;2023-05-10T07:01:50;6.03;;;5.43;;
7128;SDS011;3606;52.930;8.644;2023-05-10T07:04:16;6.03;;;5.23;;
7128;SDS011;3606;52.930;8.644;2023-05-10T07:06:42;6.50;;;5.80;;
7128;SDS011;3606;52.930;8.644;2023-05-10T07:09:08;6.20;;;5.57;;
7128;SDS011;3606;52.930;8.644;2023-05-10T07:11:34;6.37;;;5.43;;
7128;SDS011;3606;52.930;8.644;2023-05-10T07:13:59;7.43;;;4.87;;
7128;SDS011;3606;52.930;8.644;2023-05-10T07:16:25;7.63;;;5.83;;
7128;SDS011;3606;52.930;8.644;2023-05-10T07:18:51;6.17;;;4.67;;
7128;SDS011;3606;52.930;8.644;2023-05-10T07:21:18;5.40;;;4.57;;
7128;SDS011;3606;52.930;8.644;2023-05-10T07:23:43;5.07;;;4.30;;
7128;SDS011;3606;52.930;8.644;2023-05-10T07:26:09;5.03;;;4.50;;
7128;SDS011;3606;52.930;8.644;2023-05-10T07:28:35;4.77;;;3.63;;
7128;SDS011;3606;52.930;8.644;2023-05-10T07:31:02;4.33;;;3.93;;
7128;SDS011;3606;52.930;8.644;2023-05-10T07:33:28;4.63;;;4.13;;
7128;SDS011;3606;52.930;8.644;2023-05-10T07:35:53;5.03;;;3.93;;
7128;SDS011;3606;52.930;8.644;2023-05-10T07:38:19;4.33;;;3.93;;
7128;SDS011;3606;52.930;8.644;2023-05-10T07:40:44;4.90;;;4.23;;
7128;SDS011;3606;52.930;8.644;2023-05-10T07:43:10;4.30;;;3.90;;
7128;SDS011;3606;52.930;8.644;2023-05-10T07:45:35;4.73;;;3.70;;
7128;SDS011;3606;52.930;8.644;2023-05-10T07:48:01;4.17;;;3.77;;
7128;SDS011;3606;52.930;8.644;2023-05-10T07:50:27;4.70;;;3.80;;
7128;SDS011;3606;52.930;8.644;2023-05-10T07:52:52;3.90;;;3.60;;
7128;SDS011;3606;52.930;8.644;2023-05-10T07:55:18;4.07;;;3.10;;
7128;SDS011;3606;52.930;8.644;2023-05-10T07:57:46;3.23;;;2.93;;
7128;SDS011;3606;52.930;8.644;2023-05-10T08:00:16;3.63;;;3.30;;
7128;SDS011;3606;52.930;8.644;2023-05-10T08:02:43;3.70;;;3.40;;
7128;SDS011;3606;52.930;8.644;2023-05-10T08:05:08;3.70;;;3.40;;
7128;SDS011;3606;52.930;8.644;2023-05-10T08:07:34;3.70;;;3.10;;
7128;SDS011;3606;52.930;8.644;2023-05-10T08:10:00;3.50;;;3.20;;
7128;SDS011;3606;52.930;8.644;2023-05-10T08:12:26;3.43;;;3.13;;
7128;SDS011;3606;52.930;8.644;2023-05-10T08:14:52;4.93;;;3.47;;
7128;SDS011;3606;52.930;8.644;2023-05-10T08:17:17;4.03;;;3.63;;
7128;SDS011;3606;52.930;8.644;2023-05-10T08:19:43;3.83;;;3.53;;
7128;SDS011;3606;52.930;8.644;2023-05-10T08:22:08;4.90;;;3.93;;
7128;SDS011;3606;52.930;8.644;2023-05-10T08:24:34;5.70;;;3.90;;
7128;SDS011;3606;52.930;8.644;2023-05-10T08:27:03;5.40;;;3.47;;
7128;SDS011;3606;52.930;8.644;2023-05-10T08:29:29;3.83;;;3.43;;
7128;SDS011;3606;52.930;8.644;2023-05-10T08:31:55;5.70;;;3.70;;
7128;SDS011;3606;52.930;8.644;2023-05-10T08:34:20;4.47;;;3.80;;
7128;SDS011;3606;52.930;8.644;2023-05-10T08:36:46;5.20;;;4.10;;
7128;SDS011;3606;52.930;8.644;2023-05-10T08:39:12;4.03;;;3.50;;
7128;SDS011;3606;52.930;8.644;2023-05-10T08:41:38;4.50;;;4.10;;
7128;SDS011;3606;52.930;8.644;2023-05-10T08:44:07;5.57;;;3.73;;
7128;SDS011;3606;52.930;8.644;2023-05-10T08:46:33;5.77;;;3.80;;
7128;SDS011;3606;52.930;8.644;2023-05-10T08:49:03;5.07;;;3.80;;
7128;SDS011;3606;52.930;8.644;2023-05-10T08:51:31;4.37;;;3.97;;
7128;SDS011;3606;52.930;8.644;2023-05-10T08:54:02;4.20;;;3.90;;
7128;SDS011;3606;52.930;8.644;2023-05-10T08:56:29;5.37;;;3.87;;
7128;SDS011;3606;52.930;8.644;2023-05-10T08:58:55;4.43;;;4.00;;
7128;SDS011;3606;52.930;8.644;2023-05-10T09:01:22;5.10;;;4.60;;
7128;SDS011;3606;52.930;8.644;2023-05-10T09:03:47;4.67;;;4.27;;
7128;SDS011;3606;52.930;8.644;2023-05-10T09:06:14;5.50;;;4.47;;
7128;SDS011;3606;52.930;8.644;2023-05-10T09:08:41;4.70;;;4.30;;
7128;SDS011;3606;52.930;8.644;2023-05-10T09:11:08;4.80;;;4.40;;
7128;SDS011;3606;52.930;8.644;2023-05-10T09:13:34;5.03;;;4.57;;
7128;SDS011;3606;52.930;8.644;2023-05-10T09:16:00;4.93;;;4.50;;
7128;SDS011;3606;52.930;8.644;2023-05-10T09:18:27;4.77;;;3.93;;
7128;SDS011;3606;52.930;8.644;2023-05-10T09:20:53;5.23;;;4.03;;
7128;SDS011;3606;52.930;8.644;2023-05-10T09:23:19;5.97;;;3.80;;
7128;SDS011;3606;52.930;8.644;2023-05-10T09:25:44;4.30;;;3.80;;
7128;SDS011;3606;52.930;8.644;2023-05-10T09:28:10;4.53;;;4.03;;
7128;SDS011;3606;52.930;8.644;2023-05-10T09:30:36;5.43;;;4.00;;
7128;SDS011;3606;52.930;8.644;2023-05-10T09:33:02;3.97;;;3.57;;
7128;SDS011;3606;52.930;8.644;2023-05-10T09:35:29;6.83;;;4.77;;
7128;SDS011;3606;52.930;8.644;2023-05-10T09:37:57;5.40;;;4.50;;
7128;SDS011;3606;52.930;8.644;2023-05-10T09:40:26;6.33;;;5.07;;
7128;SDS011;3606;52.930;8.644;2023-05-10T09:43:03;6.13;;;4.50;;
7128;SDS011;3606;52.930;8.644;2023-05-10T09:45:32;6.40;;;4.00;;
7128;SDS011;3606;52.930;8.644;2023-05-10T09:47:59;5.60;;;4.30;;
7128;SDS011;3606;52.930;8.644;2023-05-10T09:50:26;8.17;;;4.63;;
7128;SDS011;3606;52.930;8.644;2023-05-10T09:52:54;7.37;;;4.70;;
7128;SDS011;3606;52.930;8.644;2023-05-10T09:55:21;7.40;;;4.67;;
7128;SDS011;3606;52.930;8.644;2023-05-10T09:57:49;6.07;;;3.90;;
7128;SDS011;3606;52.930;8.644;2023-05-10T10:00:23;6.20;;;3.50;;
7128;SDS011;3606;52.930;8.644;2023-05-10T10:02:55;5.57;;;3.23;;
7128;SDS011;3606;52.930;8.644;2023-05-10T10:05:29;3.27;;;2.80;;
7128;SDS011;3606;52.930;8.644;2023-05-10T10:07:56;3.23;;;2.47;;
7128;SDS011;3606;52.930;8.644;2023-05-10T10:10:23;4.77;;;2.80;;
7128;SDS011;3606;52.930;8.644;2023-05-10T10:12:50;6.10;;;2.67;;
7128;SDS011;3606;52.930;8.644;2023-05-10T10:15:16;3.50;;;2.63;;
7128;SDS011;3606;52.930;8.644;2023-05-10T10:17:42;6.57;;;2.87;;
7128;SDS011;3606;52.930;8.644;2023-05-10T10:20:09;3.40;;;2.40;;
7128;SDS011;3606;52.930;8.644;2023-05-10T10:22:36;3.80;;;2.50;;
7128;SDS011;3606;52.930;8.644;2023-05-10T10:25:02;2.97;;;2.63;;
7128;SDS011;3606;52.930;8.644;2023-05-10T10:35:39;7.40;;;3.90;;
7128;SDS011;3606;52.930;8.644;2023-05-10T10:38:07;8.57;;;4.07;;
7128;SDS011;3606;52.930;8.644;2023-05-10T10:40:33;6.87;;;3.70;;
7128;SDS011;3606;52.930;8.644;2023-05-10T10:48:38;3.20;;;2.90;;
7128;SDS011;3606;52.930;8.644;2023-05-10T10:51:05;5.20;;;3.00;;
7128;SDS011;3606;52.930;8.644;2023-05-10T10:53:31;2.97;;;2.67;;
7128;SDS011;3606;52.930;8.644;2023-05-10T10:58:34;3.13;;;2.17;;
7128;SDS011;3606;52.930;8.644;2023-05-10T11:03:37;3.20;;;2.80;;
7128;SDS011;3606;52.930;8.644;2023-05-10T11:06:04;3.77;;;2.40;;
7128;SDS011;3606;52.930;8.644;2023-05-10T11:08:30;3.10;;;2.30;;
7128;SDS011;3606;52.930;8.644;2023-05-10T11:13:29;2.77;;;2.17;;
7128;SDS011;3606;52.930;8.644;2023-05-10T11:19:01;1.43;;;1.30;;
7128;SDS011;3606;52.930;8.644;2023-05-10T11:21:45;2.80;;;1.33;;
7128;SDS011;3606;52.930;8.644;2023-05-10T11:24:18;1.40;;;1.30;;
7128;SDS011;3606;52.930;8.644;2023-05-10T11:26:45;1.60;;;1.10;;
7128;SDS011;3606;52.930;8.644;2023-05-10T11:29:14;2.37;;;1.20;;
7128;SDS011;3606;52.930;8.644;2023-05-10T11:31:44;2.23;;;1.30;;
7128;SDS011;3606;52.930;8.644;2023-05-10T11:34:10;1.20;;;1.03;;
7128;SDS011;3606;52.930;8.644;2023-05-10T11:36:36;1.33;;;1.10;;
7128;SDS011;3606;52.930;8.644;2023-05-10T11:39:02;1.00;;;1.00;;
7128;SDS011;3606;52.930;8.644;2023-05-10T11:41:29;1.40;;;1.30;;
7128;SDS011;3606;52.930;8.644;2023-05-10T11:43:56;1.63;;;1.53;;
7128;SDS011;3606;52.930;8.644;2023-05-10T11:46:26;1.93;;;1.83;;
7128;SDS011;3606;52.930;8.644;2023-05-10T11:48:54;2.50;;;2.20;;
7128;SDS011;3606;52.930;8.644;2023-05-10T11:51:28;3.10;;;2.40;;
7128;SDS011;3606;52.930;8.644;2023-05-10T11:53:57;2.43;;;2.23;;
7128;SDS011;3606;52.930;8.644;2023-05-10T11:56:23;1.90;;;1.80;;
7128;SDS011;3606;52.930;8.644;2023-05-10T11:58:56;1.90;;;1.80;;
7128;SDS011;3606;52.930;8.644;2023-05-10T12:01:23;1.43;;;1.33;;
7128;SDS011;3606;52.930;8.644;2023-05-10T12:03:50;1.80;;;1.50;;
7128;SDS011;3606;52.930;8.644;2023-05-10T12:06:20;1.27;;;1.17;;
7128;SDS011;3606;52.930;8.644;2023-05-10T12:08:47;0.90;;;0.90;;
7128;SDS011;3606;52.930;8.644;2023-05-10T12:11:17;1.10;;;1.00;;
7128;SDS011;3606;52.930;8.644;2023-05-10T12:13:43;1.00;;;1.00;;
7128;SDS011;3606;52.930;8.644;2023-05-10T12:16:12;1.63;;;1.53;;
7128;SDS011;3606;52.930;8.644;2023-05-10T12:18:40;1.90;;;1.70;;
7128;SDS011;3606;52.930;8.644;2023-05-10T12:21:07;1.60;;;1.50;;
7128;SDS011;3606;52.930;8.644;2023-05-10T12:23:35;1.87;;;1.77;;
7128;SDS011;3606;52.930;8.644;2023-05-10T12:26:04;2.27;;;1.90;;
7128;SDS011;3606;52.930;8.644;2023-05-10T12:28:30;1.70;;;1.60;;
7128;SDS011;3606;52.930;8.644;2023-05-10T12:30:59;2.10;;;1.90;;
7128;SDS011;3606;52.930;8.644;2023-05-10T12:33:26;1.73;;;1.63;;
7128;SDS011;3606;52.930;8.644;2023-05-10T12:35:52;1.90;;;1.80;;
7128;SDS011;3606;52.930;8.644;2023-05-10T12:40:55;1.47;;;1.37;;
7128;SDS011;3606;52.930;8.644;2023-05-10T12:43:28;1.47;;;1.23;;
7128;SDS011;3606;52.930;8.644;2023-05-10T12:45:54;2.00;;;1.27;;
7128;SDS011;3606;52.930;8.644;2023-05-10T12:48:19;1.43;;;1.30;;
7128;SDS011;3606;52.930;8.644;2023-05-10T12:50:45;0.97;;;0.97;;
7128;SDS011;3606;52.930;8.644;2023-05-10T12:53:12;1.43;;;1.33;;
7128;SDS011;3606;52.930;8.644;2023-05-10T12:55:40;1.70;;;1.47;;
7128;SDS011;3606;52.930;8.644;2023-05-10T12:58:06;2.00;;;1.90;;
7128;SDS011;3606;52.930;8.644;2023-05-10T13:00:32;2.33;;;1.60;;
7128;SDS011;3606;52.930;8.644;2023-05-10T13:02:57;2.20;;;2.10;;
7128;SDS011;3606;52.930;8.644;2023-05-10T13:05:23;2.80;;;2.30;;
7128;SDS011;3606;52.930;8.644;2023-05-10T13:07:48;2.63;;;2.40;;
7128;SDS011;3606;52.930;8.644;2023-05-10T13:10:14;3.57;;;2.77;;
7128;SDS011;3606;52.930;8.644;2023-05-10T13:12:40;3.17;;;2.83;;
7128;SDS011;3606;52.930;8.644;2023-05-10T13:15:05;3.10;;;2.80;;
7128;SDS011;3606;52.930;8.644;2023-05-10T13:17:31;3.10;;;2.80;;
7128;SDS011;3606;52.930;8.644;2023-05-10T13:19:57;3.40;;;3.10;;
7128;SDS011;3606;52.930;8.644;2023-05-10T13:22:22;3.30;;;3.00;;
7128;SDS011;3606;52.930;8.644;2023-05-10T13:24:48;3.90;;;3.60;;
7128;SDS011;3606;52.930;8.644;2023-05-10T13:27:14;3.37;;;3.07;;
7128;SDS011;3606;52.930;8.644;2023-05-10T13:29:39;3.03;;;2.80;;
7128;SDS011;3606;52.930;8.644;2023-05-10T13:32:05;2.53;;;2.33;;
7128;SDS011;3606;52.930;8.644;2023-05-10T13:34:30;2.80;;;2.60;;
7128;SDS011;3606;52.930;8.644;2023-05-10T13:36:56;2.23;;;2.13;;
7128;SDS011;3606;52.930;8.644;2023-05-10T13:39:22;2.67;;;2.10;;
7128;SDS011;3606;52.930;8.644;2023-05-10T13:41:48;2.47;;;2.27;;
7128;SDS011;3606;52.930;8.644;2023-05-10T13:44:14;2.10;;;2.00;;
7128;SDS011;3606;52.930;8.644;2023-05-10T13:46:40;3.50;;;2.20;;
7128;SDS011;3606;52.930;8.644;2023-05-10T13:49:08;3.30;;;2.40;;
7128;SDS011;3606;52.930;8.644;2023-05-10T13:51:34;2.50;;;2.30;;
7128;SDS011;3606;52.930;8.644;2023-05-10T13:54:00;2.10;;;2.00;;
7128;SDS011;3606;52.930;8.644;2023-05-10T13:56:26;2.53;;;2.33;;
7128;SDS011;3606;52.930;8.644;2023-05-10T13:58:52;3.87;;;2.40;;
7128;SDS011;3606;52.930;8.644;2023-05-10T14:01:18;2.70;;;2.50;;
7128;SDS011;3606;52.930;8.644;2023-05-10T14:03:44;2.23;;;2.03;;
7128;SDS011;3606;52.930;8.644;2023-05-10T14:06:09;2.30;;;2.10;;
7128;SDS011;3606;52.930;8.644;2023-05-10T14:08:35;2.30;;;2.10;;
7128;SDS011;3606;52.930;8.644;2023-05-10T14:11:01;1.83;;;1.73;;
7128;SDS011;3606;52.930;8.644;2023-05-10T14:13:26;1.90;;;1.80;;
7128;SDS011;3606;52.930;8.644;2023-05-10T14:15:52;2.03;;;1.93;;
7128;SDS011;3606;52.930;8.644;2023-05-10T14:18:18;1.90;;;1.80;;
7128;SDS011;3606;52.930;8.644;2023-05-10T14:20:44;1.73;;;1.63;;
7128;SDS011;3606;52.930;8.644;2023-05-10T14:23:10;1.60;;;1.50;;
7128;SDS011;3606;52.930;8.644;2023-05-10T14:25:35;1.90;;;1.70;;
7128;SDS011;3606;52.930;8.644;2023-05-10T14:28:01;2.30;;;1.70;;
7128;SDS011;3606;52.930;8.644;2023-05-10T14:30:26;2.13;;;1.63;;
7128;SDS011;3606;52.930;8.644;2023-05-10T14:32:52;1.63;;;1.53;;
7128;SDS011;3606;52.930;8.644;2023-05-10T14:35:19;1.60;;;1.50;;
7128;SDS011;3606;52.930;8.644;2023-05-10T14:37:45;1.27;;;1.17;;
7128;SDS011;3606;52.930;8.644;2023-05-10T14:40:10;2.63;;;1.50;;
7128;SDS011;3606;52.930;8.644;2023-05-10T14:42:37;2.20;;;1.20;;
7128;SDS011;3606;52.930;8.644;2023-05-10T14:45:03;1.80;;;1.70;;
7128;SDS011;3606;52.930;8.644;2023-05-10T14:47:29;1.87;;;1.50;;
7128;SDS011;3606;52.930;8.644;2023-05-10T14:49:55;1.57;;;1.47;;
7128;SDS011;3606;52.930;8.644;2023-05-10T14:52:20;1.60;;;1.50;;
7128;SDS011;3606;52.930;8.644;2023-05-10T14:54:46;2.03;;;1.30;;
7128;SDS011;3606;52.930;8.644;2023-05-10T14:57:11;1.30;;;1.20;;
7128;SDS011;3606;52.930;8.644;2023-05-10T14:59:37;1.30;;;1.20;;
7128;SDS011;3606;52.930;8.644;2023-05-10T15:02:03;0.80;;;0.80;;
7128;SDS011;3606;52.930;8.644;2023-05-10T15:04:29;1.20;;;1.10;;
7128;SDS011;3606;52.930;8.644;2023-05-10T15:06:55;1.03;;;1.03;;
7128;SDS011;3606;52.930;8.644;2023-05-10T15:09:24;0.80;;;0.80;;
7128;SDS011;3606;52.930;8.644;2023-05-10T15:11:50;0.63;;;0.60;;
7128;SDS011;3606;52.930;8.644;2023-05-10T15:14:15;2.67;;;0.90;;
7128;SDS011;3606;52.930;8.644;2023-05-10T15:16:41;0.90;;;0.90;;
7128;SDS011;3606;52.930;8.644;2023-05-10T15:19:07;0.60;;;0.60;;
7128;SDS011;3606;52.930;8.644;2023-05-10T15:21:32;2.50;;;0.80;;
7128;SDS011;3606;52.930;8.644;2023-05-10T15:24:03;1.40;;;1.03;;
7128;SDS011;3606;52.930;8.644;2023-05-10T15:26:30;0.80;;;0.80;;
7128;SDS011;3606;52.930;8.644;2023-05-10T15:28:55;1.20;;;1.10;;
7128;SDS011;3606;52.930;8.644;2023-05-10T15:31:21;1.43;;;1.10;;
7128;SDS011;3606;52.930;8.644;2023-05-10T15:33:47;0.90;;;0.90;;
7128;SDS011;3606;52.930;8.644;2023-05-10T15:36:12;0.97;;;0.83;;
7128;SDS011;3606;52.930;8.644;2023-05-10T15:38:38;1.00;;;0.90;;
7128;SDS011;3606;52.930;8.644;2023-05-10T15:41:03;2.40;;;1.30;;
7128;SDS011;3606;52.930;8.644;2023-05-10T15:43:29;0.83;;;0.80;;
7128;SDS011;3606;52.930;8.644;2023-05-10T15:45:55;2.17;;;1.10;;
7128;SDS011;3606;52.930;8.644;2023-05-10T15:48:20;3.60;;;1.40;;
7128;SDS011;3606;52.930;8.644;2023-05-10T15:50:46;2.63;;;1.37;;
7128;SDS011;3606;52.930;8.644;2023-05-10T15:53:11;2.00;;;1.13;;